createdAt,value
2022-12-15T00:00:48.811Z,-8.23
2022-12-15T00:03:31.472Z,-7.68
2022-12-15T00:06:15.584Z,-6.98
2022-12-15T00:08:57.800Z,-7.77
2022-12-15T00:11:42.574Z,-7.78
2022-12-15T00:14:26.193Z,-7.96
2022-12-15T00:17:08.380Z,-7.19
2022-12-15T00:19:50.527Z,-7.27
2022-12-15T00:22:32.813Z,-6.67
2022-12-15T00:25:15.316Z,-6.64
2022-12-15T00:28:00.099Z,-6.65
2022-12-15T00:30:42.868Z,-7.75
2022-12-15T00:33:26.457Z,-8.97
2022-12-15T00:36:10.231Z,-8.24
2022-12-15T00:38:46.253Z,-8.78
2022-12-15T00:41:18.379Z,-8.35
2022-12-15T00:43:50.655Z,-7.27
2022-12-15T00:46:32.880Z,-7.56
2022-12-15T00:49:03.281Z,-7.49
2022-12-15T00:51:45.594Z,-7.43
2022-12-15T00:54:28.033Z,-7.10
2022-12-15T00:57:10.227Z,-7.00
2022-12-15T00:59:54.987Z,-7.36
2022-12-15T01:02:37.239Z,-7.52
2022-12-15T01:05:20.502Z,-6.90
2022-12-15T01:08:02.672Z,-7.11
2022-12-15T01:10:44.880Z,-6.96
2022-12-15T01:13:29.045Z,-6.83
2022-12-15T01:16:14.142Z,-7.07
2022-12-15T01:18:56.396Z,-6.56
2022-12-15T01:21:26.114Z,-7.31
2022-12-15T01:23:56.461Z,-7.47
2022-12-15T01:26:26.140Z,-6.67
2022-12-15T01:28:55.824Z,-6.48
2022-12-15T01:31:28.626Z,-6.52
2022-12-15T01:33:58.338Z,-7.07
2022-12-15T01:36:30.594Z,-6.73
2022-12-15T01:39:00.274Z,-7.37
2022-12-15T01:41:27.924Z,-6.76
2022-12-15T01:43:57.628Z,-6.85
2022-12-15T01:46:30.033Z,-6.68
2022-12-15T01:49:10.760Z,-7.12
2022-12-15T01:51:44.978Z,-7.24
2022-12-15T01:54:18.526Z,-6.98
2022-12-15T01:56:51.291Z,-6.45
2022-12-15T01:59:25.188Z,-6.65
2022-12-15T02:01:57.517Z,-6.22
2022-12-15T02:04:28.054Z,-7.44
2022-12-15T02:06:57.761Z,-6.97
2022-12-15T02:09:29.427Z,-7.05
2022-12-15T02:12:15.285Z,-6.24
2022-12-15T02:14:56.669Z,-6.67
2022-12-15T02:17:38.447Z,-6.71
2022-12-15T02:20:38.021Z,-6.48
2022-12-15T02:23:48.277Z,-6.28
2022-12-15T02:26:39.557Z,-6.72
2022-12-15T02:29:21.841Z,-6.06
2022-12-15T02:32:01.491Z,-5.82
2022-12-15T02:34:41.241Z,-6.67
2022-12-15T02:37:16.244Z,-6.68
2022-12-15T02:39:46.133Z,-7.35
2022-12-15T02:42:16.507Z,-7.39
2022-12-15T02:44:51.160Z,-7.32
2022-12-15T02:47:35.364Z,-7.02
2022-12-15T02:50:29.248Z,-7.05
2022-12-15T02:53:13.720Z,-6.97
2022-12-15T02:55:53.305Z,-7.78
2022-12-15T02:58:31.971Z,-7.46
2022-12-15T03:01:05.469Z,-7.47
2022-12-15T03:03:38.648Z,-6.77
2022-12-15T03:06:08.978Z,-7.44
2022-12-15T03:08:41.021Z,-8.83
2022-12-15T03:11:10.813Z,-9.86
2022-12-15T03:13:40.518Z,-9.57
2022-12-15T03:16:10.762Z,-9.96
2022-12-15T03:18:43.137Z,-9.80
2022-12-15T03:21:12.817Z,-9.54
2022-12-15T03:23:42.528Z,-9.04
2022-12-15T03:26:12.284Z,-9.09
2022-12-15T03:28:42.785Z,-8.58
2022-12-15T03:31:12.733Z,-8.48
2022-12-15T03:33:45.114Z,-8.38
2022-12-15T03:36:14.804Z,-8.67
2022-12-15T03:38:47.490Z,-9.57
2022-12-15T03:41:17.986Z,-9.78
2022-12-15T03:43:50.151Z,-8.94
2022-12-15T03:46:19.956Z,-9.04
2022-12-15T03:48:52.433Z,-9.09
2022-12-15T03:51:22.180Z,-9.23
2022-12-15T03:53:52.083Z,-8.26
2022-12-15T03:56:21.789Z,-7.92
2022-12-15T03:58:51.536Z,-7.71
2022-12-15T04:01:29.646Z,-7.48
2022-12-15T04:04:03.037Z,-9.39
2022-12-15T04:06:33.548Z,-9.65
2022-12-15T04:09:03.253Z,-9.42
2022-12-15T04:11:32.966Z,-9.26
2022-12-15T04:14:02.654Z,-8.69
2022-12-15T04:16:32.580Z,-8.25
2022-12-15T04:19:17.378Z,-8.45
2022-12-15T04:21:47.222Z,-7.82
2022-12-15T04:24:29.488Z,-7.57
2022-12-15T04:27:11.658Z,-8.82
2022-12-15T04:29:53.848Z,-8.52
2022-12-15T04:32:36.046Z,-8.84
2022-12-15T04:35:21.541Z,-8.41
2022-12-15T04:38:03.741Z,-8.12
2022-12-15T04:40:45.939Z,-8.44
2022-12-15T04:43:28.370Z,-9.15
2022-12-15T04:46:10.833Z,-8.80
2022-12-15T04:48:53.032Z,-7.98
2022-12-15T04:51:37.802Z,-8.08
2022-12-15T04:54:19.952Z,-7.83
2022-12-15T04:57:02.129Z,-8.02
2022-12-15T04:59:44.346Z,-7.95
2022-12-15T05:02:26.751Z,-7.60
2022-12-15T05:05:09.021Z,-7.32
2022-12-15T05:07:53.811Z,-7.29
2022-12-15T05:10:36.021Z,-7.83
2022-12-15T05:13:22.264Z,-8.21
2022-12-15T05:16:04.507Z,-8.34
2022-12-15T05:18:46.770Z,-8.07
2022-12-15T05:21:28.951Z,-8.33
2022-12-15T05:24:13.697Z,-8.23
2022-12-15T05:26:55.928Z,-8.43
2022-12-15T05:29:38.148Z,-8.60
2022-12-15T05:32:08.116Z,-8.73
2022-12-15T05:34:39.178Z,-8.34
2022-12-15T05:37:09.117Z,-8.16
2022-12-15T05:39:41.609Z,-8.53
2022-12-15T05:42:11.539Z,-8.21
2022-12-15T05:44:41.864Z,-8.23
2022-12-15T05:47:11.896Z,-7.81
2022-12-15T05:49:41.605Z,-7.86
2022-12-15T05:52:11.611Z,-7.85
2022-12-15T05:54:43.902Z,-7.87
2022-12-15T05:57:13.641Z,-7.75
2022-12-15T05:59:43.378Z,-7.56
2022-12-15T06:02:13.192Z,-7.95
2022-12-15T06:04:43.639Z,-7.85
2022-12-15T06:07:13.385Z,-7.57
2022-12-15T06:09:45.731Z,-7.60
2022-12-15T06:12:15.460Z,-7.73
2022-12-15T06:14:45.215Z,-7.76
2022-12-15T06:17:15.015Z,-7.26
2022-12-15T06:19:44.690Z,-7.30
2022-12-15T06:22:14.354Z,-7.33
2022-12-15T06:24:46.831Z,-7.43
2022-12-15T06:27:16.586Z,-7.09
2022-12-15T06:29:46.348Z,-7.39
2022-12-15T06:32:16.096Z,-7.91
2022-12-15T06:34:45.807Z,-7.90
2022-12-15T06:37:15.576Z,-7.47
2022-12-15T06:39:48.068Z,-7.97
2022-12-15T06:42:17.789Z,-7.50
2022-12-15T06:44:47.585Z,-6.88
2022-12-15T06:47:20.035Z,-7.17
2022-12-15T06:49:49.923Z,-7.50
2022-12-15T06:52:19.651Z,-7.26
2022-12-15T06:54:51.976Z,-7.31
2022-12-15T06:57:21.695Z,-8.25
2022-12-15T06:59:51.417Z,-7.60
2022-12-15T07:02:28.861Z,-7.41
2022-12-15T07:04:59.041Z,-7.79
2022-12-15T07:07:29.112Z,-7.76
2022-12-15T07:10:01.393Z,-8.02
2022-12-15T07:12:31.147Z,-8.14
2022-12-15T07:15:00.923Z,-8.53
2022-12-15T07:17:30.970Z,-8.49
2022-12-15T07:20:00.704Z,-8.03
2022-12-15T07:22:31.177Z,-7.84
2022-12-15T07:25:03.554Z,-7.84
2022-12-15T07:27:33.451Z,-7.81
2022-12-15T07:30:03.189Z,-7.80
2022-12-15T07:32:33.161Z,-7.11
2022-12-15T07:35:05.439Z,-7.13
2022-12-15T07:37:35.169Z,-7.88
2022-12-15T07:40:08.832Z,-7.43
2022-12-15T07:42:39.115Z,-7.49
2022-12-15T07:45:10.854Z,-7.46
2022-12-15T07:47:40.626Z,-7.18
2022-12-15T07:50:11.582Z,-6.51
2022-12-15T07:52:41.281Z,-6.70
2022-12-15T07:55:13.777Z,-7.27
2022-12-15T07:57:43.546Z,-7.27
2022-12-15T08:00:14.857Z,-7.08
2022-12-15T08:02:45.068Z,-6.42
2022-12-15T08:05:19.853Z,-6.48
2022-12-15T08:07:49.639Z,-6.22
2022-12-15T08:10:21.998Z,-5.90
2022-12-15T08:12:51.727Z,-5.93
2022-12-15T08:15:21.481Z,-5.78
2022-12-15T08:17:51.663Z,-5.56
2022-12-15T08:20:21.474Z,-6.35
2022-12-15T08:22:51.197Z,-5.91
2022-12-15T08:25:23.496Z,-5.99
2022-12-15T08:27:53.261Z,-5.60
2022-12-15T08:30:23.043Z,-5.01
2022-12-15T08:32:53.022Z,-4.58
2022-12-15T08:35:54.478Z,-4.77
2022-12-15T08:38:12.717Z,-5.47
2022-12-15T08:40:45.029Z,-4.70
2022-12-15T08:43:14.806Z,-4.79
2022-12-15T08:45:45.133Z,-4.21
2022-12-15T08:48:15.047Z,-4.23
2022-12-15T08:50:47.042Z,-3.91
2022-12-15T08:53:32.528Z,-4.74
2022-12-15T08:56:08.699Z,-4.65
2022-12-15T08:58:39.273Z,-5.24
2022-12-15T09:01:11.121Z,-4.11
2022-12-15T09:03:41.225Z,-4.40
2022-12-15T09:06:15.935Z,-4.36
2022-12-15T09:08:48.546Z,-4.52
2022-12-15T09:11:23.114Z,-4.24
2022-12-15T09:13:52.971Z,-4.07
2022-12-15T09:16:23.963Z,-3.21
2022-12-15T09:18:55.664Z,-3.47
2022-12-15T09:21:27.303Z,-2.77
2022-12-15T09:24:00.747Z,-2.84
2022-12-15T09:26:35.426Z,-2.79
2022-12-15T09:29:05.822Z,-2.34
2022-12-15T09:31:39.804Z,-1.87
2022-12-15T09:34:09.546Z,-2.21
2022-12-15T09:36:39.254Z,-1.95
2022-12-15T09:39:08.976Z,-1.63
2022-12-15T09:41:43.331Z,-2.44
2022-12-15T09:44:16.179Z,-1.53
2022-12-15T09:46:57.351Z,-1.67
2022-12-15T09:49:40.738Z,-2.17
2022-12-15T09:52:15.607Z,-1.75
2022-12-15T09:54:46.863Z,-1.68
2022-12-15T09:57:28.032Z,-1.80
2022-12-15T10:00:10.151Z,-1.80
2022-12-15T10:02:58.576Z,-1.87
2022-12-15T10:06:07.348Z,-1.70
2022-12-15T10:08:33.784Z,-1.70
2022-12-15T10:11:06.667Z,-2.03
2022-12-15T10:13:45.490Z,-1.37
2022-12-15T10:16:23.908Z,-1.47
2022-12-15T10:19:01.855Z,-1.24
2022-12-15T10:21:34.723Z,-0.66
2022-12-15T10:24:15.049Z,-0.61
2022-12-15T10:26:45.906Z,-1.39
2022-12-15T10:29:36.570Z,-0.88
2022-12-15T10:32:08.769Z,-0.92
2022-12-15T10:34:39.922Z,-0.62
2022-12-15T10:37:16.289Z,-0.91
2022-12-15T10:39:50.261Z,-0.99
2022-12-15T10:42:23.518Z,-0.31
2022-12-15T10:44:57.870Z,-0.35
2022-12-15T10:47:29.687Z,0.40
2022-12-15T10:50:24.503Z,0.59
2022-12-15T10:52:55.042Z,0.72
2022-12-15T10:55:40.997Z,-0.08
2022-12-15T10:58:20.739Z,-0.21
2022-12-15T11:01:08.883Z,0.30
2022-12-15T11:03:41.378Z,1.27
2022-12-15T11:06:17.930Z,0.32
2022-12-15T11:08:48.388Z,1.58
2022-12-15T11:11:45.855Z,1.13
2022-12-15T11:14:18.874Z,0.38
2022-12-15T11:16:55.373Z,0.41
2022-12-15T11:19:34.396Z,0.60
2022-12-15T11:22:08.783Z,0.60
2022-12-15T11:24:45.579Z,0.57
2022-12-15T11:27:24.634Z,0.92
2022-12-15T11:30:02.777Z,1.01
2022-12-15T11:32:38.282Z,0.89
2022-12-15T11:35:14.374Z,1.65
2022-12-15T11:37:46.037Z,1.69
2022-12-15T11:40:37.143Z,1.08
2022-12-15T11:43:30.169Z,1.84
2022-12-15T11:46:21.102Z,1.79
2022-12-15T11:49:09.293Z,2.11
2022-12-15T11:51:45.348Z,1.27
2022-12-15T11:54:25.669Z,0.21
2022-12-15T11:57:02.123Z,0.59
2022-12-15T12:00:01.972Z,1.50
2022-12-15T12:02:54.296Z,0.79
2022-12-15T12:05:46.825Z,1.73
2022-12-15T12:08:32.640Z,1.04
2022-12-15T12:11:11.402Z,1.25
2022-12-15T12:13:53.527Z,1.24
2022-12-15T12:16:37.609Z,1.46
2022-12-15T12:19:09.593Z,0.88
2022-12-15T12:21:46.846Z,1.77
2022-12-15T12:24:26.517Z,1.04
2022-12-15T12:27:01.952Z,1.17
2022-12-15T12:29:36.824Z,2.00
2022-12-15T12:32:14.323Z,1.72
2022-12-15T12:35:32.159Z,1.55
2022-12-15T12:38:01.031Z,1.79
2022-12-15T12:40:44.762Z,2.15
2022-12-15T12:43:25.559Z,2.10
2022-12-15T12:45:58.741Z,1.73
2022-12-15T12:48:34.956Z,1.44
2022-12-15T12:51:25.015Z,1.58
2022-12-15T12:53:58.335Z,1.40
2022-12-15T12:56:34.199Z,0.93
2022-12-15T12:59:08.798Z,1.18
2022-12-15T13:01:40.370Z,1.20
2022-12-15T13:04:13.751Z,1.20
2022-12-15T13:06:59.759Z,1.80
2022-12-15T13:09:44.096Z,1.60
2022-12-15T13:12:53.457Z,1.46
2022-12-15T13:15:43.817Z,1.05
2022-12-15T13:18:18.472Z,1.53
2022-12-15T13:20:50.878Z,1.56
2022-12-15T13:23:45.682Z,1.73
2022-12-15T13:26:21.706Z,1.62
2022-12-15T13:28:53.770Z,1.40
2022-12-15T13:31:30.131Z,1.44
2022-12-15T13:34:32.371Z,0.98
2022-12-15T13:37:03.898Z,1.82
2022-12-15T13:39:59.989Z,1.83
2022-12-15T13:45:51.499Z,1.67
2022-12-15T13:48:30.733Z,1.72
2022-12-15T13:51:07.375Z,2.25
2022-12-15T13:53:43.177Z,1.71
2022-12-15T13:56:42.926Z,2.30
2022-12-15T13:59:27.508Z,2.35
2022-12-15T14:01:57.407Z,2.58
2022-12-15T14:04:29.704Z,2.70
2022-12-15T14:07:02.961Z,2.90
2022-12-15T14:09:36.842Z,3.17
2022-12-15T14:12:10.460Z,3.19
2022-12-15T14:14:49.044Z,2.93
2022-12-15T14:17:21.908Z,2.87
2022-12-15T14:19:53.436Z,3.02
2022-12-15T14:22:29.065Z,2.45
2022-12-15T14:25:06.143Z,2.38
2022-12-15T14:27:36.586Z,2.28
2022-12-15T14:30:24.466Z,2.08
2022-12-15T14:32:59.258Z,0.78
2022-12-15T14:35:33.431Z,1.06
2022-12-15T14:38:08.902Z,0.64
2022-12-15T14:40:40.574Z,1.03
2022-12-15T14:43:14.577Z,0.55
2022-12-15T14:45:46.954Z,0.75
2022-12-15T14:48:41.033Z,0.72
2022-12-15T14:51:13.060Z,0.73
2022-12-15T14:53:46.018Z,0.02
2022-12-15T14:56:29.679Z,0.43
2022-12-15T14:59:21.905Z,0.38
2022-12-15T15:02:02.123Z,-0.31
2022-12-15T15:03:11.018Z,1.75
2022-12-15T15:04:34.259Z,0.12
2022-12-15T15:07:07.083Z,-0.28
2022-12-15T15:09:42.223Z,-0.34
2022-12-15T15:12:18.091Z,-0.88
2022-12-15T15:14:50.857Z,-0.99
2022-12-15T15:17:37.918Z,-0.64
2022-12-15T15:20:18.698Z,0.04
2022-12-15T15:22:49.355Z,-0.41
2022-12-15T15:25:33.606Z,-0.46
2022-12-15T15:28:16.616Z,-0.34
2022-12-15T15:30:48.673Z,-1.33
2022-12-15T15:33:21.726Z,-1.35
2022-12-15T15:35:54.548Z,-0.93
2022-12-15T15:38:27.117Z,-1.07
2022-12-15T15:40:58.979Z,-1.30
2022-12-15T15:43:30.330Z,-1.33
2022-12-15T15:46:03.458Z,-0.44
2022-12-15T15:48:38.517Z,-0.52
2022-12-15T15:51:08.985Z,-0.46
2022-12-15T15:53:40.136Z,-0.38
2022-12-15T15:56:13.537Z,-0.67
2022-12-15T15:58:43.910Z,-1.09
2022-12-15T16:01:14.181Z,-1.54
2022-12-15T16:03:46.543Z,-1.84
2022-12-15T16:06:19.903Z,-1.41
2022-12-15T16:08:54.658Z,-1.84
2022-12-15T16:11:28.322Z,-1.75
2022-12-15T16:13:58.023Z,-1.70
2022-12-15T16:16:32.870Z,-1.66
2022-12-15T16:19:05.211Z,-1.81
2022-12-15T16:21:35.474Z,-2.55
2022-12-15T16:24:11.393Z,-2.91
2022-12-15T16:26:44.505Z,-2.84
2022-12-15T16:29:17.500Z,-1.52
2022-12-15T16:31:47.469Z,-1.58
2022-12-15T16:34:21.818Z,-1.48
2022-12-15T16:36:51.507Z,-2.00
2022-12-15T16:39:30.602Z,-2.12
2022-12-15T16:42:00.856Z,-1.91
2022-12-15T16:44:31.937Z,-1.35
2022-12-15T16:47:01.722Z,-0.93
2022-12-15T16:49:40.018Z,-0.60
2022-12-15T16:52:19.835Z,-0.76
2022-12-15T16:54:51.202Z,-1.20
2022-12-15T16:57:21.359Z,-1.58
2022-12-15T16:59:51.031Z,-1.17
2022-12-15T17:02:30.329Z,-2.97
2022-12-15T17:05:02.849Z,-3.04
2022-12-15T17:07:33.233Z,-3.66
2022-12-15T17:10:03.385Z,-3.91
2022-12-15T17:12:33.532Z,-3.00
2022-12-15T17:15:03.972Z,-3.73
2022-12-15T17:17:33.897Z,-3.67
2022-12-15T17:23:00.479Z,-4.48
2022-12-15T17:26:18.035Z,-4.10
2022-12-15T17:28:32.471Z,-3.34
2022-12-15T17:31:03.086Z,-3.84
2022-12-15T17:33:36.493Z,-3.70
2022-12-15T17:36:18.160Z,-3.53
2022-12-15T17:38:47.891Z,-3.53
2022-12-15T17:41:42.251Z,-3.74
2022-12-15T17:44:37.903Z,-3.20
2022-12-15T17:47:10.497Z,-2.85
2022-12-15T17:49:40.874Z,-3.34
2022-12-15T17:52:30.963Z,-4.36
2022-12-15T17:55:00.889Z,-4.12
2022-12-15T17:57:32.228Z,-3.14
2022-12-15T18:00:02.452Z,-3.69
2022-12-15T18:02:35.273Z,-4.31
2022-12-15T18:05:05.116Z,-4.49
2022-12-15T18:07:37.575Z,-3.28
2022-12-15T18:10:08.343Z,-3.42
2022-12-15T18:12:38.055Z,-3.43
2022-12-15T18:15:20.384Z,-4.80
2022-12-15T18:17:50.263Z,-3.90
2022-12-15T18:20:21.486Z,-4.32
2022-12-15T18:22:54.577Z,-4.34
2022-12-15T18:25:26.623Z,-4.21
2022-12-15T18:27:56.896Z,-4.38
2022-12-15T18:30:28.895Z,-4.27
2022-12-15T18:33:01.368Z,-3.59
2022-12-15T18:35:36.676Z,-3.77
2022-12-15T18:38:16.953Z,-4.03
2022-12-15T18:40:48.580Z,-4.35
2022-12-15T18:43:20.181Z,-3.62
2022-12-15T18:45:51.900Z,-3.54
2022-12-15T18:48:24.807Z,-3.37
2022-12-15T18:50:56.549Z,-3.38
2022-12-15T18:53:31.320Z,-3.40
2022-12-15T18:56:03.769Z,-2.95
2022-12-15T18:58:35.150Z,-4.02
2022-12-15T19:01:07.715Z,-3.08
2022-12-15T19:03:38.841Z,-3.34
2022-12-15T19:06:11.704Z,-3.56
2022-12-15T19:08:44.268Z,-3.24
2022-12-15T19:11:19.720Z,-3.29
2022-12-15T19:13:49.442Z,-4.22
2022-12-15T19:16:22.279Z,-4.38
2022-12-15T19:19:04.613Z,-3.80
2022-12-15T19:21:48.371Z,-3.42
2022-12-15T19:24:46.887Z,-4.39
2022-12-15T19:27:20.916Z,-4.05
2022-12-15T19:29:51.003Z,-4.53
2022-12-15T19:32:20.755Z,-4.37
2022-12-15T19:34:50.440Z,-4.58
2022-12-15T19:37:26.537Z,-4.71
2022-12-15T19:40:00.769Z,-4.23
2022-12-15T19:42:35.477Z,-3.79
2022-12-15T19:45:16.666Z,-5.03
2022-12-15T19:47:46.549Z,-4.68
2022-12-15T19:50:18.080Z,-5.34
2022-12-15T19:52:49.854Z,-4.68
2022-12-15T19:55:28.379Z,-3.75
2022-12-15T19:57:58.158Z,-4.05
2022-12-15T20:00:28.195Z,-5.08
2022-12-15T20:03:00.161Z,-5.35
2022-12-15T20:05:30.504Z,-4.60
2022-12-15T20:08:00.160Z,-4.35
2022-12-15T20:10:32.912Z,-4.46
2022-12-15T20:13:03.456Z,-4.15
2022-12-15T20:15:33.233Z,-4.75
2022-12-15T20:18:02.902Z,-4.98
2022-12-15T20:20:32.715Z,-5.51
2022-12-15T20:23:06.223Z,-4.97
2022-12-15T20:25:40.381Z,-4.98
2022-12-15T20:28:16.999Z,-4.62
2022-12-15T20:30:47.608Z,-4.42
2022-12-15T20:33:18.315Z,-4.53
2022-12-15T20:35:50.863Z,-5.17
2022-12-15T20:38:29.101Z,-5.74
2022-12-15T20:41:02.355Z,-5.09
2022-12-15T20:43:35.080Z,-5.81
2022-12-15T20:46:08.640Z,-5.26
2022-12-15T20:48:39.323Z,-5.32
2022-12-15T20:51:11.058Z,-6.04
2022-12-15T20:53:41.899Z,-6.37
2022-12-15T20:56:14.643Z,-6.01
2022-12-15T20:58:46.066Z,-5.63
2022-12-15T21:01:21.579Z,-4.74
2022-12-15T21:03:53.008Z,-4.64
2022-12-15T21:06:23.140Z,-5.82
2022-12-15T21:08:52.860Z,-6.05
2022-12-15T21:11:26.898Z,-5.56
2022-12-15T21:14:04.081Z,-5.13
2022-12-15T21:16:34.805Z,-4.40
2022-12-15T21:19:22.600Z,-4.60
2022-12-15T21:21:55.843Z,-4.91
2022-12-15T21:24:28.024Z,-4.86
2022-12-15T21:27:01.603Z,-4.54
2022-12-15T21:29:38.933Z,-4.23
2022-12-15T21:32:08.642Z,-4.80
2022-12-15T21:34:39.364Z,-4.76
2022-12-15T21:37:16.249Z,-5.23
2022-12-15T21:39:46.096Z,-5.02
2022-12-15T21:42:21.140Z,-4.01
2022-12-15T21:44:51.067Z,-4.29
2022-12-15T21:47:47.515Z,-4.51
2022-12-15T21:50:14.502Z,-4.20
2022-12-15T21:52:44.763Z,-3.80
2022-12-15T21:55:18.329Z,-4.26
2022-12-15T21:57:50.590Z,-4.58
2022-12-15T22:00:23.244Z,-4.65
2022-12-15T22:02:54.383Z,-4.56
2022-12-15T22:05:29.380Z,-4.75
2022-12-15T22:08:01.337Z,-3.98
2022-12-15T22:10:31.073Z,-4.41
2022-12-15T22:13:03.442Z,-4.55
2022-12-15T22:15:33.206Z,-4.70
2022-12-15T22:18:02.963Z,-4.56
2022-12-15T22:20:32.681Z,-4.72
2022-12-15T22:23:02.414Z,-5.00
2022-12-15T22:25:32.125Z,-4.84
2022-12-15T22:28:04.351Z,-4.80
2022-12-15T22:30:34.052Z,-4.92
2022-12-15T22:33:05.177Z,-4.79
2022-12-15T22:35:34.815Z,-4.99
2022-12-15T22:38:04.467Z,-5.33
2022-12-15T22:40:34.316Z,-5.07
2022-12-15T22:43:07.740Z,-5.11
2022-12-15T22:45:41.256Z,-4.24
2022-12-15T22:48:15.579Z,-3.99
2022-12-15T22:50:45.325Z,-4.02
2022-12-15T22:53:17.023Z,-4.23
2022-12-15T22:55:49.143Z,-5.00
2022-12-15T22:58:29.040Z,-4.58
2022-12-15T23:01:01.102Z,-4.70
2022-12-15T23:03:32.301Z,-4.44
2022-12-15T23:06:04.099Z,-4.94
2022-12-15T23:08:34.786Z,-4.96
2022-12-15T23:11:16.997Z,-4.54
2022-12-15T23:13:49.327Z,-4.95
2022-12-15T23:16:21.624Z,-5.03
2022-12-15T23:18:52.737Z,-4.52
2022-12-15T23:21:25.968Z,-4.98
2022-12-15T23:23:55.754Z,-4.90
2022-12-15T23:26:26.067Z,-4.80
2022-12-15T23:28:58.354Z,-4.62
2022-12-15T23:31:28.115Z,-4.52
2022-12-15T23:33:57.860Z,-4.74
2022-12-15T23:36:27.598Z,-4.90
2022-12-15T23:38:57.718Z,-5.41
2022-12-15T23:41:29.246Z,-5.49
2022-12-15T23:44:01.614Z,-4.86
2022-12-15T23:46:31.358Z,-4.66
2022-12-15T23:49:01.613Z,-4.31
2022-12-15T23:51:31.664Z,-4.25
2022-12-15T23:54:01.343Z,-4.51
2022-12-15T23:56:31.049Z,-4.48
2022-12-15T23:59:03.324Z,-4.73
